Time;durP1;ratioP1;P1;durP2;ratioP2;P2;SDS_P1;SDS_P2;PMS_P1;PMS_P2;Temp;Humidity;BMP_temperature;BMP_pressure;BME280_temperature;BME280_humidity;BME280_pressure;Samples;Min_cycle;Max_cycle;Signal;HPM_P1;HPM_P2
2023/02/27 00:00:00;;;;;;;10.98;6.20;;;;;;;;;;5044327;28;20061;-75
2023/02/27 00:02:26;;;;;;;11.45;6.05;;;;;;;;;;5053314;28;20068;-75
2023/02/27 00:04:53;;;;;;;12.27;6.13;;;;;;;;;;5041243;28;20037;-76
2023/02/27 00:07:24;;;;;;;13.13;6.50;;;;;;;;;;5053345;28;20112;-76
2023/02/27 00:09:50;;;;;;;11.30;5.22;;;;;;;;;;5039388;28;20137;-76
2023/02/27 00:12:16;;;;;;;10.98;4.70;;;;;;;;;;5047600;28;20028;-76
2023/02/27 00:14:42;;;;;;;10.52;4.70;;;;;;;;;;5053184;28;20047;-76
2023/02/27 00:17:08;;;;;;;11.40;4.45;;;;;;;;;;5049516;28;20052;-76
2023/02/27 00:19:34;;;;;;;10.13;4.82;;;;;;;;;;5049352;28;20051;-75
2023/02/27 00:22:00;;;;;;;11.88;4.78;;;;;;;;;;5036415;28;20089;-75
2023/02/27 00:24:26;;;;;;;11.60;4.75;;;;;;;;;;5050376;28;20634;-76
2023/02/27 00:26:52;;;;;;;9.32;4.57;;;;;;;;;;5040660;28;20026;-75
2023/02/27 00:29:19;;;;;;;7.35;3.70;;;;;;;;;;5046895;28;20063;-76
2023/02/27 00:31:45;;;;;;;9.18;3.10;;;;;;;;;;5046029;28;20079;-75
2023/02/27 00:34:11;;;;;;;7.85;2.90;;;;;;;;;;5040331;28;20045;-76
2023/02/27 00:36:37;;;;;;;7.38;3.55;;;;;;;;;;5048763;28;20740;-76
2023/02/27 00:39:03;;;;;;;5.65;2.45;;;;;;;;;;5053930;28;20036;-76
2023/02/27 00:41:29;;;;;;;6.55;2.75;;;;;;;;;;5044857;28;20055;-75
2023/02/27 00:43:55;;;;;;;7.63;2.97;;;;;;;;;;5051915;28;20041;-76
2023/02/27 00:46:21;;;;;;;7.55;2.88;;;;;;;;;;5056629;28;20029;-76
2023/02/27 00:48:47;;;;;;;7.65;3.33;;;;;;;;;;5047319;28;20119;-76
2023/02/27 00:51:13;;;;;;;9.10;4.15;;;;;;;;;;5060773;28;20485;-76
2023/02/27 00:53:39;;;;;;;12.25;5.15;;;;;;;;;;5043372;28;20047;-76
2023/02/27 00:56:05;;;;;;;10.18;5.22;;;;;;;;;;5034987;28;20079;-76
2023/02/27 00:58:31;;;;;;;9.80;5.13;;;;;;;;;;5050311;28;20029;-76
2023/02/27 01:00:58;;;;;;;10.45;4.95;;;;;;;;;;5040941;28;20116;-76
2023/02/27 01:03:24;;;;;;;8.68;4.18;;;;;;;;;;5039344;28;20030;-75
2023/02/27 01:05:51;;;;;;;9.70;5.10;;;;;;;;;;5041424;28;20416;-76
2023/02/27 01:08:16;;;;;;;9.55;4.25;;;;;;;;;;5042456;28;20116;-76
2023/02/27 01:10:43;;;;;;;9.38;3.90;;;;;;;;;;5042572;28;20552;-76
2023/02/27 01:13:09;;;;;;;7.32;4.13;;;;;;;;;;5048937;28;20032;-76
2023/02/27 01:15:35;;;;;;;8.98;4.00;;;;;;;;;;5037870;28;20036;-76
2023/02/27 01:18:01;;;;;;;9.60;3.70;;;;;;;;;;5059264;28;20797;-76
2023/02/27 01:20:27;;;;;;;12.68;5.07;;;;;;;;;;5057044;28;20028;-76
2023/02/27 01:22:53;;;;;;;9.02;4.88;;;;;;;;;;5051651;28;20033;-75
2023/02/27 01:25:19;;;;;;;10.30;5.03;;;;;;;;;;5049384;28;20053;-76
2023/02/27 01:27:45;;;;;;;12.77;6.18;;;;;;;;;;5044406;28;20033;-76
2023/02/27 01:30:13;;;;;;;14.23;6.22;;;;;;;;;;5048229;28;20063;-76
2023/02/27 01:32:39;;;;;;;11.13;5.47;;;;;;;;;;5042889;28;20025;-76
2023/02/27 01:35:06;;;;;;;9.43;5.20;;;;;;;;;;5047469;28;20115;-76
2023/02/27 01:37:32;;;;;;;10.55;5.28;;;;;;;;;;5056654;28;20070;-75
2023/02/27 01:39:58;;;;;;;10.73;5.60;;;;;;;;;;5063210;28;20409;-76
2023/02/27 01:42:25;;;;;;;12.70;5.53;;;;;;;;;;5035597;28;20033;-75
2023/02/27 01:45:18;;;;;;;12.02;5.05;;;;;;;;;;5035457;28;20037;-76
2023/02/27 01:47:44;;;;;;;;;;;;;;;;;;5052288;28;20039;-76
2023/02/27 01:50:11;;;;;;;11.77;5.40;;;;;;;;;;5052327;28;20270;-76
2023/02/27 01:52:38;;;;;;;13.15;5.90;;;;;;;;;;5035852;28;20491;-76
2023/02/27 01:55:07;;;;;;;10.98;5.13;;;;;;;;;;5031830;28;20037;-76
2023/02/27 01:57:33;;;;;;;9.25;4.30;;;;;;;;;;5039345;28;20109;-76
2023/02/27 01:59:59;;;;;;;11.35;6.07;;;;;;;;;;5051955;28;20064;-76
2023/02/27 02:02:28;;;;;;;11.25;5.35;;;;;;;;;;5043165;28;20601;-75
2023/02/27 02:04:54;;;;;;;12.48;5.00;;;;;;;;;;5040329;28;20069;-75
2023/02/27 02:07:21;;;;;;;8.70;4.25;;;;;;;;;;5047308;28;20040;-76
2023/02/27 02:09:51;;;;;;;11.70;4.93;;;;;;;;;;5041180;28;20041;-76
2023/02/27 02:12:19;;;;;;;14.30;4.82;;;;;;;;;;5039565;28;20036;-76
2023/02/27 02:14:45;;;;;;;10.32;4.65;;;;;;;;;;5041214;28;20044;-76
2023/02/27 02:17:11;;;;;;;10.88;4.05;;;;;;;;;;5047223;28;20036;-76
2023/02/27 02:19:46;;;;;;;9.00;4.53;;;;;;;;;;5039668;28;20044;-75
2023/02/27 02:22:31;;;;;;;9.88;4.55;;;;;;;;;;5050000;28;20108;-76
2023/02/27 02:25:06;;;;;;;11.30;4.10;;;;;;;;;;5045139;28;20078;-76
2023/02/27 02:27:41;;;;;;;9.07;4.38;;;;;;;;;;5041873;28;20037;-76
2023/02/27 02:30:26;;;;;;;6.93;3.80;;;;;;;;;;5044904;28;20037;-76
2023/02/27 02:33:14;;;;;;;10.43;5.20;;;;;;;;;;5055493;28;20036;-76
2023/02/27 02:35:46;;;;;;;11.88;4.45;;;;;;;;;;5060997;28;20470;-75
2023/02/27 02:38:39;;;;;;;7.75;4.35;;;;;;;;;;5024731;28;20029;-76
2023/02/27 02:41:18;;;;;;;9.52;4.80;;;;;;;;;;5036507;28;20637;-76
2023/02/27 02:44:02;;;;;;;7.78;4.07;;;;;;;;;;5040463;28;20091;-76
2023/02/27 02:46:28;;;;;;;7.78;4.05;;;;;;;;;;5050237;28;20132;-76
2023/02/27 02:48:58;;;;;;;8.82;4.45;;;;;;;;;;5044631;28;20120;-76
2023/02/27 02:51:30;;;;;;;8.88;4.57;;;;;;;;;;5046267;28;20034;-76
2023/02/27 02:54:01;;;;;;;8.75;3.83;;;;;;;;;;5038447;28;20073;-76
2023/02/27 02:56:32;;;;;;;9.07;4.05;;;;;;;;;;5059775;28;20024;-76
2023/02/27 02:59:20;;;;;;;6.72;3.15;;;;;;;;;;5040388;28;20706;-76
2023/02/27 03:01:51;;;;;;;8.10;3.55;;;;;;;;;;5047951;28;20036;-76
2023/02/27 03:04:37;;;;;;;6.28;2.60;;;;;;;;;;5045696;28;20072;-76
2023/02/27 03:07:06;;;;;;;6.45;2.65;;;;;;;;;;5035046;28;20032;-76
2023/02/27 03:09:38;;;;;;;7.88;2.80;;;;;;;;;;5046612;28;20036;-76
2023/02/27 03:12:05;;;;;;;6.60;2.70;;;;;;;;;;5051484;28;20601;-76
2023/02/27 03:14:41;;;;;;;8.00;3.00;;;;;;;;;;5044940;28;20508;-76
2023/02/27 03:17:15;;;;;;;5.72;2.50;;;;;;;;;;5028892;28;20553;-76
2023/02/27 03:19:44;;;;;;;9.52;2.83;;;;;;;;;;5042726;28;20030;-76
2023/02/27 03:22:13;;;;;;;6.93;2.80;;;;;;;;;;5041404;28;20124;-76
2023/02/27 03:24:40;;;;;;;8.30;3.00;;;;;;;;;;5041796;28;20061;-76
2023/02/27 03:27:08;;;;;;;7.35;3.00;;;;;;;;;;5050736;28;20036;-76
2023/02/27 03:29:41;;;;;;;8.43;2.90;;;;;;;;;;5038923;28;20029;-76
2023/02/27 03:32:10;;;;;;;6.97;3.10;;;;;;;;;;5039978;28;20158;-76
2023/02/27 03:34:38;;;;;;;11.07;2.60;;;;;;;;;;5045371;28;20106;-75
2023/02/27 03:37:26;;;;;;;6.53;3.05;;;;;;;;;;5045031;28;20411;-76
2023/02/27 03:39:57;;;;;;;7.57;3.15;;;;;;;;;;5052361;28;20044;-76
2023/02/27 03:42:41;;;;;;;6.82;3.08;;;;;;;;;;5043036;28;20029;-75
2023/02/27 03:45:16;;;;;;;8.98;4.47;;;;;;;;;;5050291;28;20071;-76
2023/02/27 03:47:42;;;;;;;12.52;3.80;;;;;;;;;;5055037;28;20578;-76
2023/02/27 03:50:08;;;;;;;10.95;4.97;;;;;;;;;;5052344;28;20561;-76
2023/02/27 03:52:34;;;;;;;9.38;4.10;;;;;;;;;;5050388;28;20040;-76
2023/02/27 03:55:11;;;;;;;8.13;3.35;;;;;;;;;;5050337;28;20034;-76
2023/02/27 03:57:37;;;;;;;8.40;3.83;;;;;;;;;;5046233;28;20118;-76
2023/02/27 04:00:05;;;;;;;8.93;3.58;;;;;;;;;;5051141;28;20454;-76
2023/02/27 04:02:31;;;;;;;7.35;3.47;;;;;;;;;;5055978;28;20529;-76
2023/02/27 04:04:57;;;;;;;9.10;4.15;;;;;;;;;;5056453;28;20037;-76
2023/02/27 04:07:30;;;;;;;8.80;3.70;;;;;;;;;;5037679;28;20091;-76
2023/02/27 04:09:56;;;;;;;10.70;3.97;;;;;;;;;;5044924;28;20037;-76
2023/02/27 04:12:22;;;;;;;8.00;3.83;;;;;;;;;;5046053;28;20363;-76
2023/02/27 04:14:54;;;;;;;10.50;3.47;;;;;;;;;;5045829;28;20108;-76
2023/02/27 04:17:22;;;;;;;14.43;3.85;;;;;;;;;;5033988;28;20021;-75
2023/02/27 04:20:05;;;;;;;8.52;3.58;;;;;;;;;;5044285;28;20043;-76
2023/02/27 04:22:38;;;;;;;7.75;3.85;;;;;;;;;;5044151;28;20807;-76
2023/02/27 04:25:17;;;;;;;7.60;3.92;;;;;;;;;;5041523;28;20061;-76
2023/02/27 04:27:51;;;;;;;11.05;3.85;;;;;;;;;;5044769;28;20561;-76
2023/02/27 04:30:17;;;;;;;7.93;3.72;;;;;;;;;;5052888;28;20040;-76
2023/02/27 04:33:01;;;;;;;10.20;3.83;;;;;;;;;;5035563;28;20045;-76
2023/02/27 04:35:27;;;;;;;9.15;3.70;;;;;;;;;;5037478;28;20048;-76
2023/02/27 04:38:09;;;;;;;6.40;3.35;;;;;;;;;;5041986;28;20037;-76
2023/02/27 04:40:37;;;;;;;8.00;3.93;;;;;;;;;;5058732;28;20151;-76
2023/02/27 04:43:06;;;;;;;7.72;3.58;;;;;;;;;;5041435;28;20280;-76
2023/02/27 04:45:34;;;;;;;11.57;4.25;;;;;;;;;;5049223;28;20032;-76
2023/02/27 04:48:20;;;;;;;12.00;4.68;;;;;;;;;;5035239;28;20036;-76
2023/02/27 04:50:51;;;;;;;8.65;4.15;;;;;;;;;;5046001;28;20048;-76
2023/02/27 04:53:17;;;;;;;9.65;4.20;;;;;;;;;;5062169;28;20036;-76
2023/02/27 04:55:46;;;;;;;11.57;4.90;;;;;;;;;;5044701;28;20037;-76
2023/02/27 04:58:15;;;;;;;10.25;3.95;;;;;;;;;;5045032;28;20155;-76
2023/02/27 05:00:42;;;;;;;9.13;4.18;;;;;;;;;;5039918;28;20042;-76
2023/02/27 05:03:11;;;;;;;7.65;3.92;;;;;;;;;;5041803;28;20502;-76
2023/02/27 05:05:39;;;;;;;10.40;5.10;;;;;;;;;;5046254;28;20059;-76
2023/02/27 05:08:08;;;;;;;8.52;4.15;;;;;;;;;;5055246;28;20032;-76
2023/02/27 05:10:42;;;;;;;10.18;5.05;;;;;;;;;;5059153;28;20112;-76
2023/02/27 05:13:19;;;;;;;9.15;4.97;;;;;;;;;;5044927;28;20030;-76
2023/02/27 05:15:47;;;;;;;10.40;4.45;;;;;;;;;;5021763;28;20436;-76
2023/02/27 05:18:15;;;;;;;11.63;4.88;;;;;;;;;;5049305;28;20040;-76
2023/02/27 05:20:44;;;;;;;9.90;4.85;;;;;;;;;;5040259;28;20086;-76
2023/02/27 05:23:29;;;;;;;11.57;4.32;;;;;;;;;;5056596;28;20072;-76
2023/02/27 05:26:01;;;;;;;9.63;4.25;;;;;;;;;;5052978;28;20502;-75
2023/02/27 05:28:36;;;;;;;9.30;3.58;;;;;;;;;;5044708;28;20756;-76
2023/02/27 05:31:04;;;;;;;10.00;3.88;;;;;;;;;;5049866;28;20808;-76
2023/02/27 05:33:33;;;;;;;12.60;4.28;;;;;;;;;;5063869;28;20115;-76
2023/02/27 05:36:11;;;;;;;9.40;4.22;;;;;;;;;;5060913;28;20478;-76
2023/02/27 05:38:44;;;;;;;11.02;3.53;;;;;;;;;;5041173;28;20017;-76
2023/02/27 05:41:12;;;;;;;8.55;3.88;;;;;;;;;;5043053;28;20544;-76
2023/02/27 05:44:04;;;;;;;10.65;3.72;;;;;;;;;;5041681;28;20033;-75
2023/02/27 05:46:32;;;;;;;8.82;3.85;;;;;;;;;;5054335;28;20083;-76
2023/02/27 05:49:11;;;;;;;9.57;3.92;;;;;;;;;;5038134;28;20083;-76
2023/02/27 05:51:38;;;;;;;9.90;4.38;;;;;;;;;;5048379;28;20033;-76
2023/02/27 05:54:09;;;;;;;12.60;5.13;;;;;;;;;;5044627;28;20105;-76
2023/02/27 05:56:36;;;;;;;15.52;6.30;;;;;;;;;;5031667;28;20022;-76
2023/02/27 05:59:06;;;;;;;12.15;5.18;;;;;;;;;;5045735;28;20029;-76
2023/02/27 06:01:32;;;;;;;13.00;5.47;;;;;;;;;;5038840;28;20431;-76
2023/02/27 06:03:58;;;;;;;13.63;5.63;;;;;;;;;;5051190;28;20036;-76
2023/02/27 06:06:24;;;;;;;11.63;5.28;;;;;;;;;;5043366;28;20055;-76
2023/02/27 06:08:50;;;;;;;12.55;6.00;;;;;;;;;;5044239;28;20040;-76
2023/02/27 06:11:16;;;;;;;17.33;6.20;;;;;;;;;;5046476;28;20044;-75
2023/02/27 06:13:42;;;;;;;13.27;5.82;;;;;;;;;;5056318;28;20041;-76
2023/02/27 06:16:10;;;;;;;14.40;5.90;;;;;;;;;;5050784;28;20043;-75
2023/02/27 06:18:35;;;;;;;12.52;5.70;;;;;;;;;;5051268;28;20021;-76
2023/02/27 06:21:01;;;;;;;14.68;6.30;;;;;;;;;;5043582;28;20055;-76
2023/02/27 06:23:27;;;;;;;19.88;6.88;;;;;;;;;;5043045;28;20040;-76
2023/02/27 06:25:54;;;;;;;17.70;8.75;;;;;;;;;;5045803;28;20049;-76
2023/02/27 06:28:19;;;;;;;18.40;8.40;;;;;;;;;;5048091;28;20033;-76
2023/02/27 06:30:45;;;;;;;18.48;9.90;;;;;;;;;;5046009;28;20086;-76
2023/02/27 06:33:12;;;;;;;17.38;8.50;;;;;;;;;;5046911;28;20040;-76
2023/02/27 06:35:38;;;;;;;16.58;8.13;;;;;;;;;;5026026;28;20033;-76
2023/02/27 06:38:04;;;;;;;16.50;8.32;;;;;;;;;;5051723;28;20021;-76
2023/02/27 06:40:30;;;;;;;20.42;7.80;;;;;;;;;;5038892;28;20033;-76
2023/02/27 06:42:56;;;;;;;18.08;7.95;;;;;;;;;;5038254;28;20025;-75
2023/02/27 06:45:23;;;;;;;16.88;6.65;;;;;;;;;;5039247;28;20078;-76
2023/02/27 06:47:49;;;;;;;19.52;8.65;;;;;;;;;;5048009;28;20037;-75
2023/02/27 06:50:15;;;;;;;20.85;7.80;;;;;;;;;;5038236;28;20509;-76
2023/02/27 06:52:41;;;;;;;19.75;7.47;;;;;;;;;;5045939;28;20033;-76
2023/02/27 06:55:08;;;;;;;15.27;6.40;;;;;;;;;;5040250;28;20025;-75
2023/02/27 06:57:34;;;;;;;17.75;8.05;;;;;;;;;;5048001;28;20091;-76
2023/02/27 06:59:59;;;;;;;22.92;7.07;;;;;;;;;;5038851;28;20029;-75
2023/02/27 07:02:26;;;;;;;13.82;6.43;;;;;;;;;;5041091;28;20520;-76
2023/02/27 07:04:52;;;;;;;13.02;6.30;;;;;;;;;;5053284;28;20505;-76
2023/02/27 07:07:18;;;;;;;20.45;6.70;;;;;;;;;;5049312;28;20040;-76
2023/02/27 07:09:44;;;;;;;17.05;6.07;;;;;;;;;;5047112;28;20068;-76
2023/02/27 07:12:10;;;;;;;15.93;6.78;;;;;;;;;;5044880;28;20033;-76
2023/02/27 07:14:37;;;;;;;23.55;7.63;;;;;;;;;;5047788;28;20033;-75
2023/02/27 07:17:03;;;;;;;24.52;9.30;;;;;;;;;;5049237;28;20071;-76
2023/02/27 07:19:29;;;;;;;22.17;9.35;;;;;;;;;;5046429;28;20028;-76
2023/02/27 07:21:55;;;;;;;21.25;8.63;;;;;;;;;;5048141;28;20037;-76
2023/02/27 07:24:21;;;;;;;22.63;9.93;;;;;;;;;;5043232;28;20394;-76
2023/02/27 07:26:48;;;;;;;21.38;9.32;;;;;;;;;;5047436;28;20036;-76
2023/02/27 07:29:14;;;;;;;24.85;10.57;;;;;;;;;;5047934;28;20139;-76
2023/02/27 07:31:40;;;;;;;28.42;10.20;;;;;;;;;;5049835;28;20839;-76
2023/02/27 07:34:06;;;;;;;29.27;10.50;;;;;;;;;;5049673;28;20194;-76
2023/02/27 07:36:33;;;;;;;23.65;10.80;;;;;;;;;;5041862;28;20124;-76
2023/02/27 07:38:59;;;;;;;24.00;9.93;;;;;;;;;;5041651;28;20139;-76
2023/02/27 07:41:25;;;;;;;28.80;11.55;;;;;;;;;;5045374;28;20028;-76
2023/02/27 07:43:51;;;;;;;30.13;10.23;;;;;;;;;;5041995;28;20033;-76
2023/02/27 07:46:17;;;;;;;29.15;9.70;;;;;;;;;;5048290;28;20712;-76
2023/02/27 07:48:43;;;;;;;22.40;10.00;;;;;;;;;;5048684;28;20048;-75
2023/02/27 07:51:09;;;;;;;20.13;8.88;;;;;;;;;;5043056;28;20037;-76
2023/02/27 07:53:35;;;;;;;18.33;6.22;;;;;;;;;;5037047;28;20378;-76
2023/02/27 07:56:01;;;;;;;11.45;5.32;;;;;;;;;;5054845;28;20151;-76
2023/02/27 07:58:27;;;;;;;10.23;5.43;;;;;;;;;;5031745;28;20021;-76
2023/02/27 08:00:53;;;;;;;11.02;4.75;;;;;;;;;;5047308;28;20029;-76
2023/02/27 08:03:19;;;;;;;10.23;5.10;;;;;;;;;;5048667;28;20136;-76
2023/02/27 08:05:45;;;;;;;8.35;4.20;;;;;;;;;;5047677;28;20045;-75
2023/02/27 08:08:11;;;;;;;10.10;4.95;;;;;;;;;;5051837;28;20036;-76
2023/02/27 08:10:37;;;;;;;11.35;5.38;;;;;;;;;;5052064;28;20472;-77
2023/02/27 08:13:03;;;;;;;14.25;5.28;;;;;;;;;;5040338;28;20036;-76
2023/02/27 08:15:31;;;;;;;9.45;4.55;;;;;;;;;;5050075;28;20598;-76
2023/02/27 08:17:57;;;;;;;13.75;5.28;;;;;;;;;;5045045;28;20025;-76
2023/02/27 08:20:24;;;;;;;10.75;4.50;;;;;;;;;;5046955;28;20048;-76
2023/02/27 08:22:50;;;;;;;10.00;5.07;;;;;;;;;;5057918;28;20364;-76
2023/02/27 08:25:16;;;;;;;15.48;5.22;;;;;;;;;;5038686;28;20080;-76
2023/02/27 08:27:42;;;;;;;10.27;4.93;;;;;;;;;;5048206;28;20037;-76
2023/02/27 08:30:10;;;;;;;18.50;7.03;;;;;;;;;;5055692;28;20052;-76
2023/02/27 08:32:37;;;;;;;33.65;16.00;;;;;;;;;;5040702;28;20115;-76
2023/02/27 08:35:03;;;;;;;10.18;4.30;;;;;;;;;;5045394;28;20033;-76
2023/02/27 08:37:29;;;;;;;8.52;4.65;;;;;;;;;;5046077;28;20037;-76
2023/02/27 08:39:55;;;;;;;10.30;4.80;;;;;;;;;;5053683;28;20610;-76
2023/02/27 08:42:21;;;;;;;9.38;5.80;;;;;;;;;;5047625;28;20032;-76
2023/02/27 08:44:49;;;;;;;11.65;5.03;;;;;;;;;;5048673;28;20689;-76
2023/02/27 08:47:15;;;;;;;10.85;5.55;;;;;;;;;;5024703;28;20036;-76
2023/02/27 08:49:41;;;;;;;9.70;4.72;;;;;;;;;;5047802;28;20067;-76
2023/02/27 08:52:08;;;;;;;9.60;4.90;;;;;;;;;;5055516;28;20056;-75
2023/02/27 08:54:35;;;;;;;11.07;4.88;;;;;;;;;;5059053;28;20037;-76
2023/02/27 08:57:02;;;;;;;9.95;4.57;;;;;;;;;;5049257;28;20120;-76
2023/02/27 08:59:28;;;;;;;12.20;4.20;;;;;;;;;;5047887;28;20063;-76
2023/02/27 09:01:54;;;;;;;10.25;4.47;;;;;;;;;;5047644;28;20052;-76
2023/02/27 09:04:20;;;;;;;7.80;4.47;;;;;;;;;;5047423;28;20041;-76
2023/02/27 09:06:46;;;;;;;9.45;4.45;;;;;;;;;;5056101;28;20032;-76
2023/02/27 09:09:12;;;;;;;9.95;5.22;;;;;;;;;;5053069;28;20134;-76
2023/02/27 09:11:38;;;;;;;12.02;4.35;;;;;;;;;;5045120;28;21039;-76
2023/02/27 09:14:05;;;;;;;10.00;4.93;;;;;;;;;;5049961;28;20051;-76
2023/02/27 09:16:31;;;;;;;10.82;5.00;;;;;;;;;;5049097;28;20034;-76
2023/02/27 09:18:57;;;;;;;9.05;4.68;;;;;;;;;;5040178;28;20040;-76
2023/02/27 09:21:23;;;;;;;7.55;4.18;;;;;;;;;;5039922;28;20029;-76
2023/02/27 09:23:50;;;;;;;11.43;4.57;;;;;;;;;;5042182;28;20041;-76
2023/02/27 09:26:16;;;;;;;10.35;4.95;;;;;;;;;;5051358;28;20033;-75
2023/02/27 09:28:42;;;;;;;8.57;4.35;;;;;;;;;;5039517;28;20036;-76
2023/02/27 09:31:09;;;;;;;7.25;4.35;;;;;;;;;;5044784;28;20643;-76
2023/02/27 09:33:37;;;;;;;11.48;4.45;;;;;;;;;;5049096;28;20068;-76
2023/02/27 09:36:04;;;;;;;8.07;4.53;;;;;;;;;;5039962;28;20045;-76
2023/02/27 09:38:30;;;;;;;9.45;4.43;;;;;;;;;;5038665;28;20071;-76
2023/02/27 09:40:58;;;;;;;10.82;5.40;;;;;;;;;;5036953;28;20021;-75
2023/02/27 09:43:39;;;;;;;11.10;5.13;;;;;;;;;;5047596;28;20063;-76
2023/02/27 09:46:06;;;;;;;9.30;4.38;;;;;;;;;;5020658;28;20474;-76
2023/02/27 09:48:36;;;;;;;10.35;4.75;;;;;;;;;;5041400;28;20042;-76
2023/02/27 09:51:02;;;;;;;7.78;3.70;;;;;;;;;;5043117;28;20029;-76
2023/02/27 09:53:36;;;;;;;8.93;3.70;;;;;;;;;;5038625;28;20040;-75
2023/02/27 09:56:07;;;;;;;10.30;3.90;;;;;;;;;;5025830;28;20029;-76
2023/02/27 09:58:52;;;;;;;8.52;4.45;;;;;;;;;;5036993;28;20102;-76
2023/02/27 10:01:34;;;;;;;9.45;4.45;;;;;;;;;;5038236;28;20067;-76
2023/02/27 10:04:18;;;;;;;10.70;4.45;;;;;;;;;;5039301;28;20163;-76
2023/02/27 10:07:02;;;;;;;9.32;4.20;;;;;;;;;;5020693;28;20029;-76
2023/02/27 10:09:46;;;;;;;11.77;4.07;;;;;;;;;;5038416;28;20037;-76
2023/02/27 10:12:35;;;;;;;9.13;3.90;;;;;;;;;;5037248;28;20031;-76
2023/02/27 10:15:10;;;;;;;12.98;3.97;;;;;;;;;;5020533;28;20079;-76
2023/02/27 10:17:39;;;;;;;8.10;4.00;;;;;;;;;;5043383;28;20095;-76
2023/02/27 10:20:09;;;;;;;9.88;4.18;;;;;;;;;;5043231;28;20088;-76
2023/02/27 10:22:40;;;;;;;13.40;5.00;;;;;;;;;;5016286;28;20518;-76
2023/02/27 10:25:10;;;;;;;8.82;4.10;;;;;;;;;;5048062;28;20056;-76
2023/02/27 10:27:36;;;;;;;10.45;4.35;;;;;;;;;;5041434;28;20037;-75
2023/02/27 10:30:16;;;;;;;11.27;4.82;;;;;;;;;;5039249;28;20080;-76
2023/02/27 10:32:43;;;;;;;14.75;5.38;;;;;;;;;;5022547;28;20083;-76
2023/02/27 10:35:29;;;;;;;10.55;4.68;;;;;;;;;;5034037;28;20064;-76
2023/02/27 10:37:58;;;;;;;9.02;4.07;;;;;;;;;;5028793;28;20083;-76
2023/02/27 10:40:24;;;;;;;9.18;4.43;;;;;;;;;;5024592;28;20029;-75
2023/02/27 10:42:51;;;;;;;11.15;4.80;;;;;;;;;;5023006;28;20036;-76
2023/02/27 10:45:17;;;;;;;12.10;4.47;;;;;;;;;;5027340;28;20029;-76
2023/02/27 10:47:43;;;;;;;10.13;4.03;;;;;;;;;;5030897;28;20750;-76
2023/02/27 10:50:21;;;;;;;10.45;3.70;;;;;;;;;;5048574;28;20075;-75
2023/02/27 10:52:52;;;;;;;7.10;3.28;;;;;;;;;;5040397;28;20041;-75
2023/02/27 10:55:22;;;;;;;7.85;4.10;;;;;;;;;;5046875;28;20033;-76
2023/02/27 10:57:48;;;;;;;8.00;4.03;;;;;;;;;;5021380;28;20044;-75
2023/02/27 11:00:33;;;;;;;7.13;3.25;;;;;;;;;;5024702;28;20037;-76
2023/02/27 11:03:00;;;;;;;5.95;3.40;;;;;;;;;;5039461;28;20045;-75
2023/02/27 11:05:27;;;;;;;6.90;3.38;;;;;;;;;;5042245;28;20044;-76
2023/02/27 11:07:54;;;;;;;7.13;3.13;;;;;;;;;;5027564;28;20757;-76
2023/02/27 11:10:22;;;;;;;5.28;2.90;;;;;;;;;;5024175;28;20035;-76
2023/02/27 11:12:59;;;;;;;6.63;2.67;;;;;;;;;;5018788;28;20548;-76
2023/02/27 11:15:27;;;;;;;8.23;2.53;;;;;;;;;;5019908;28;20370;-75
2023/02/27 11:17:53;;;;;;;5.95;2.80;;;;;;;;;;5025509;28;20434;-76
2023/02/27 11:20:29;;;;;;;5.90;2.75;;;;;;;;;;5022861;28;20071;-76
2023/02/27 11:23:07;;;;;;;6.30;2.30;;;;;;;;;;5040400;28;20079;-76
2023/02/27 11:25:33;;;;;;;6.50;2.90;;;;;;;;;;5041882;28;20743;-76
2023/02/27 11:28:15;;;;;;;6.32;2.85;;;;;;;;;;5045697;28;20029;-76
2023/02/27 11:30:42;;;;;;;14.57;3.50;;;;;;;;;;5022824;28;20033;-76
2023/02/27 11:33:19;;;;;;;8.43;2.80;;;;;;;;;;5038994;28;20040;-76
2023/02/27 11:35:50;;;;;;;5.72;2.80;;;;;;;;;;5037775;28;20029;-76
2023/02/27 11:38:17;;;;;;;6.38;3.05;;;;;;;;;;5019165;28;20120;-76
2023/02/27 11:40:49;;;;;;;4.75;2.72;;;;;;;;;;5024277;28;20045;-76
2023/02/27 11:43:35;;;;;;;7.55;2.50;;;;;;;;;;5020977;28;20363;-76
2023/02/27 11:46:05;;;;;;;5.20;2.97;;;;;;;;;;5043156;28;20049;-76
2023/02/27 11:48:34;;;;;;;4.63;2.63;;;;;;;;;;5044651;28;20025;-76
2023/02/27 11:51:07;;;;;;;9.07;2.65;;;;;;;;;;5027743;28;20481;-76
2023/02/27 11:53:41;;;;;;;3.78;2.15;;;;;;;;;;5027983;28;20036;-75
2023/02/27 11:56:12;;;;;;;4.32;2.50;;;;;;;;;;5041201;28;20033;-76
2023/02/27 11:58:41;;;;;;;7.03;2.70;;;;;;;;;;5049423;28;20111;-77
2023/02/27 12:01:13;;;;;;;6.70;2.67;;;;;;;;;;5047468;28;20032;-76
2023/02/27 12:03:42;;;;;;;4.18;2.30;;;;;;;;;;5047018;28;20064;-76
2023/02/27 12:06:35;;;;;;;4.63;2.33;;;;;;;;;;5043351;28;20038;-76
2023/02/27 12:09:04;;;;;;;5.10;2.28;;;;;;;;;;5030232;28;20072;-76
2023/02/27 12:11:30;;;;;;;4.88;2.28;;;;;;;;;;5029177;28;20040;-76
2023/02/27 12:13:59;;;;;;;3.28;1.73;;;;;;;;;;5029009;28;20082;-76
2023/02/27 12:16:33;;;;;;;5.57;2.10;;;;;;;;;;5029890;28;20033;-76
2023/02/27 12:19:12;;;;;;;4.28;2.05;;;;;;;;;;5048980;28;20791;-76
2023/02/27 12:21:41;;;;;;;5.28;2.58;;;;;;;;;;5025149;28;20026;-76
2023/02/27 12:24:10;;;;;;;4.43;2.40;;;;;;;;;;5053020;28;20091;-76
2023/02/27 12:26:39;;;;;;;4.28;2.17;;;;;;;;;;5046304;28;20477;-76
2023/02/27 12:29:21;;;;;;;4.88;2.05;;;;;;;;;;5036475;28;20029;-76
2023/02/27 12:31:47;;;;;;;;;;;;;;;;;;5044040;28;20033;-76
2023/02/27 12:34:17;;;;;;;8.43;3.05;;;;;;;;;;5032916;28;20487;-76
2023/02/27 12:36:43;;;;;;;7.07;3.15;;;;;;;;;;5050648;28;20044;-76
2023/02/27 12:39:15;;;;;;;5.53;2.85;;;;;;;;;;5045103;28;20029;-75
2023/02/27 12:41:47;;;;;;;7.72;2.92;;;;;;;;;;5040033;28;20061;-76
2023/02/27 12:44:13;;;;;;;9.35;2.90;;;;;;;;;;5051697;28;20029;-76
2023/02/27 12:46:44;;;;;;;4.22;1.95;;;;;;;;;;5032036;28;20068;-76
2023/02/27 12:49:36;;;;;;;5.70;2.35;;;;;;;;;;5048265;28;20037;-76
2023/02/27 12:52:20;;;;;;;5.10;2.30;;;;;;;;;;5048848;28;20044;-76
2023/02/27 12:55:01;;;;;;;8.55;3.03;;;;;;;;;;5039670;28;20550;-76
2023/02/27 12:57:29;;;;;;;5.82;2.75;;;;;;;;;;5044573;28;20044;-76
2023/02/27 12:59:58;;;;;;;5.88;2.35;;;;;;;;;;5047036;28;20040;-76
2023/02/27 13:02:43;;;;;;;5.90;3.00;;;;;;;;;;5029457;28;20037;-76
2023/02/27 13:05:32;;;;;;;8.30;2.95;;;;;;;;;;5040739;28;20040;-76
2023/02/27 13:08:20;;;;;;;4.85;2.42;;;;;;;;;;5010782;28;20049;-76
2023/02/27 13:10:46;;;;;;;7.95;3.10;;;;;;;;;;5043355;28;20375;-76
2023/02/27 13:13:20;;;;;;;7.75;3.10;;;;;;;;;;5042350;28;20038;-76
2023/02/27 13:15:51;;;;;;;5.05;3.03;;;;;;;;;;5044133;28;20025;-76
2023/02/27 13:18:19;;;;;;;7.60;3.10;;;;;;;;;;5052375;28;20056;-76
2023/02/27 13:20:53;;;;;;;7.18;3.10;;;;;;;;;;5042930;28;20030;-76
2023/02/27 13:23:25;;;;;;;8.27;2.92;;;;;;;;;;5042161;28;20078;-76
2023/02/27 13:25:52;;;;;;;5.13;2.92;;;;;;;;;;5053088;28;20162;-76
2023/02/27 13:28:20;;;;;;;6.90;2.72;;;;;;;;;;5042010;28;20029;-76
2023/02/27 13:30:52;;;;;;;8.82;3.00;;;;;;;;;;5015568;28;20471;-76
2023/02/27 13:33:24;;;;;;;6.95;2.85;;;;;;;;;;5044756;28;20033;-76
2023/02/27 13:36:09;;;;;;;6.90;2.97;;;;;;;;;;5048700;28;20116;-76
2023/02/27 13:38:43;;;;;;;5.03;2.70;;;;;;;;;;5044441;28;20436;-75
2023/02/27 13:41:34;;;;;;;6.50;2.58;;;;;;;;;;5044717;28;20037;-76
2023/02/27 13:44:20;;;;;;;4.55;2.58;;;;;;;;;;5046729;28;20033;-76
2023/02/27 13:46:46;;;;;;;6.85;2.70;;;;;;;;;;5046095;28;20374;-76
2023/02/27 13:49:12;;;;;;;7.07;2.95;;;;;;;;;;5045407;28;20040;-76
2023/02/27 13:51:38;;;;;;;10.35;3.38;;;;;;;;;;5041729;28;20045;-76
2023/02/27 13:54:08;;;;;;;4.63;2.67;;;;;;;;;;5038427;28;20128;-76
2023/02/27 13:56:34;;;;;;;6.47;3.28;;;;;;;;;;5025856;28;20404;-76
2023/02/27 13:59:17;;;;;;;7.05;3.33;;;;;;;;;;5049427;28;20017;-76
2023/02/27 14:01:50;;;;;;;5.40;2.70;;;;;;;;;;5047241;28;20030;-76
2023/02/27 14:04:17;;;;;;;6.95;2.70;;;;;;;;;;5027377;28;20029;-76
2023/02/27 14:06:45;;;;;;;6.10;2.80;;;;;;;;;;5041915;28;20047;-76
2023/02/27 14:09:12;;;;;;;6.10;2.92;;;;;;;;;;5049577;28;20183;-76
2023/02/27 14:11:39;;;;;;;10.98;3.17;;;;;;;;;;5036125;28;20847;-76
2023/02/27 14:14:06;;;;;;;6.03;2.90;;;;;;;;;;5045590;28;20029;-76
2023/02/27 14:16:38;;;;;;;7.10;3.17;;;;;;;;;;5041157;28;20060;-76
2023/02/27 14:19:17;;;;;;;8.73;3.35;;;;;;;;;;5035950;28;20029;-76
2023/02/27 14:22:01;;;;;;;5.78;2.78;;;;;;;;;;5045751;28;20049;-76
2023/02/27 14:24:36;;;;;;;10.05;3.50;;;;;;;;;;5044663;28;20132;-76
2023/02/27 14:27:03;;;;;;;5.45;2.75;;;;;;;;;;5034871;28;20879;-76
2023/02/27 14:29:32;;;;;;;6.40;2.72;;;;;;;;;;5047024;28;20406;-76
2023/02/27 14:32:01;;;;;;;5.55;2.80;;;;;;;;;;5048800;28;20041;-76
2023/02/27 14:34:28;;;;;;;7.47;2.80;;;;;;;;;;5038326;28;20417;-76
2023/02/27 14:36:59;;;;;;;5.63;2.63;;;;;;;;;;5042969;28;20029;-76
2023/02/27 14:39:26;;;;;;;6.15;3.15;;;;;;;;;;5026258;28;20059;-76
2023/02/27 14:41:54;;;;;;;9.60;2.80;;;;;;;;;;5046437;28;20041;-76
2023/02/27 14:44:22;;;;;;;9.30;2.70;;;;;;;;;;5039088;28;20410;-75
2023/02/27 14:46:49;;;;;;;5.00;2.72;;;;;;;;;;5039214;28;20068;-75
2023/02/27 14:49:24;;;;;;;6.50;3.10;;;;;;;;;;5048917;28;20029;-76
2023/02/27 14:51:51;;;;;;;11.25;3.22;;;;;;;;;;5043670;28;20069;-76
2023/02/27 14:54:19;;;;;;;7.20;2.83;;;;;;;;;;5045204;28;20036;-76